Time;durP1;ratioP1;P1;durP2;ratioP2;P2;SDS_P1;SDS_P2;PMS_P1;PMS_P2;Temp;Humidity;BMP_temperature;BMP_pressure;BME280_temperature;BME280_humidity;BME280_pressure;Samples;Min_cycle;Max_cycle;Signal;HPM_P1;HPM_P2
2022/12/20 01:03:52;;;;;;;148.50;65.50;;;;;;;-7.15;78.20;95952.34;1800992;77;26826;-48
2022/12/20 01:06:22;;;;;;;168.55;76.62;;;;;;;-7.24;78.29;95946.70;1802680;78;20986;-48
2022/12/20 01:08:50;;;;;;;149.30;70.75;;;;;;;-7.25;78.43;95943.27;1789234;78;21221;-50
2022/12/20 01:11:23;;;;;;;179.70;78.05;;;;;;;-7.23;78.58;95936.25;1802057;78;21099;-49
2022/12/20 01:13:55;;;;;;;184.32;79.97;;;;;;;-7.18;78.69;95930.23;1806927;78;20971;-48
2022/12/20 01:16:33;;;;;;;204.03;84.97;;;;;;;-7.04;79.36;95924.80;1789621;78;21005;-48
2022/12/20 01:19:00;;;;;;;220.27;88.17;;;;;;;-6.78;79.69;95914.44;1732542;81;21598;-47
2022/12/20 01:21:27;;;;;;;235.90;94.20;;;;;;;-6.61;79.04;95917.98;1705343;83;21834;-48
2022/12/20 01:23:54;;;;;;;225.72;96.10;;;;;;;-6.54;78.59;95903.59;1682205;84;20997;-48
2022/12/20 01:26:23;;;;;;;220.02;99.30;;;;;;;-6.51;78.25;95908.31;1689970;84;21053;-50
2022/12/20 01:28:54;;;;;;;219.25;91.40;;;;;;;-6.45;78.28;95900.93;1684319;85;21104;-48
2022/12/20 01:31:21;;;;;;;199.35;85.92;;;;;;;-6.38;78.16;95895.92;1684727;85;20978;-49
2022/12/20 01:33:50;;;;;;;181.05;77.25;;;;;;;-6.36;78.04;95895.83;1684629;85;21486;-47
2022/12/20 01:36:19;;;;;;;144.53;69.35;;;;;;;-6.35;77.83;95892.63;1684694;85;20978;-47
2022/12/20 01:38:46;;;;;;;152.68;69.82;;;;;;;-6.41;77.70;95894.65;1676548;84;21100;-49
2022/12/20 01:41:20;;;;;;;153.65;72.20;;;;;;;-6.44;77.86;95892.60;1671739;84;21084;-48
2022/12/20 01:43:59;;;;;;;153.50;70.52;;;;;;;-6.36;78.28;95889.14;1663415;84;21112;-49
2022/12/20 01:46:29;;;;;;;141.15;64.45;;;;;;;-6.24;78.23;95885.30;1660407;85;21796;-49
2022/12/20 01:49:25;;;;;;;242.50;90.92;;;;;;;-6.19;77.67;95889.73;1627336;87;21644;-48
2022/12/20 01:52:03;;;;;;;193.78;79.90;;;;;;;-6.22;77.49;95873.73;1612775;87;21607;-47
2022/12/20 01:54:37;;;;;;;179.27;78.30;;;;;;;-6.21;77.55;95872.63;1600195;89;21049;-49
2022/12/20 01:57:15;;;;;;;165.68;73.22;;;;;;;-6.18;77.35;95878.69;1609133;89;21125;-49
2022/12/20 01:59:43;;;;;;;185.70;78.55;;;;;;;-6.10;77.60;95871.23;1610753;89;21320;-48
2022/12/20 02:02:11;;;;;;;154.40;72.67;;;;;;;-6.05;77.14;95868.39;1592631;89;21696;-48
2022/12/20 02:04:38;;;;;;;151.07;71.72;;;;;;;-6.01;77.24;95869.33;1613851;89;21525;-47
2022/12/20 02:07:06;;;;;;;144.35;64.42;;;;;;;-5.89;77.20;95854.75;1613699;89;21028;-51
2022/12/20 02:09:34;;;;;;;133.63;63.17;;;;;;;-5.82;76.79;95852.94;1613713;89;21084;-47
2022/12/20 02:12:20;;;;;;;148.70;65.20;;;;;;;-5.80;76.67;95848.82;1613683;89;21302;-47
2022/12/20 02:15:01;;;;;;;145.05;67.05;;;;;;;-5.78;76.33;95844.50;1611546;89;21468;-50
2022/12/20 02:17:48;;;;;;;149.45;67.08;;;;;;;-5.89;76.36;95845.92;1605379;89;21021;-47
2022/12/20 02:20:39;;;;;;;170.72;69.27;;;;;;;-5.85;76.45;95839.63;1647578;86;21058;-47
2022/12/20 02:23:45;;;;;;;207.55;83.75;;;;;;;-5.84;76.36;95838.52;1643075;86;21156;-49
2022/12/20 02:26:54;;;;;;;209.43;83.82;;;;;;;-5.79;76.44;95827.62;1636309;86;21285;-49
2022/12/20 02:29:59;;;;;;;227.20;87.53;;;;;;;-5.57;76.57;95834.09;1641728;86;21164;-48
2022/12/20 02:32:48;;;;;;;245.27;94.25;;;;;;;-5.38;76.20;95828.38;1637042;86;21006;-48
2022/12/20 02:35:21;;;;;;;282.32;105.05;;;;;;;-5.19;75.70;95829.58;1639675;86;21215;-49
2022/12/20 02:37:50;;;;;;;255.10;92.72;;;;;;;-5.15;74.93;95815.19;1632084;86;21628;-47
2022/12/20 02:40:32;;;;;;;207.85;89.37;;;;;;;-5.24;74.26;95817.67;1635601;86;21892;-48
2022/12/20 02:43:03;;;;;;;164.28;73.10;;;;;;;-5.38;74.23;95812.29;1607329;86;21657;-48
2022/12/20 02:45:33;;;;;;;160.07;70.70;;;;;;;-5.40;74.50;95812.59;1611308;87;21138;-50
2022/12/20 02:48:09;;;;;;;151.45;71.77;;;;;;;-5.37;74.61;95799.92;1585886;88;21144;-48
2022/12/20 02:50:45;;;;;;;217.95;89.52;;;;;;;-5.38;74.78;95794.86;1589575;87;21141;-48
2022/12/20 02:53:13;;;;;;;212.78;87.97;;;;;;;-5.31;74.78;95801.30;1696683;83;21192;-49
2022/12/20 02:55:50;;;;;;;274.35;107.67;;;;;;;-5.33;74.46;95796.02;1707509;83;21021;-48
2022/12/20 02:58:37;;;;;;;253.80;100.70;;;;;;;-5.40;74.44;95793.83;1708252;82;21104;-47
2022/12/20 03:01:15;;;;;;;155.12;72.45;;;;;;;-5.45;74.56;95792.67;1710333;83;21137;-48
2022/12/20 06:15:54;;;;;;;185.22;88.37;;;;;;;-3.78;79.41;95687.38;1814179;77;26815;-48
2022/12/20 06:18:21;;;;;;;230.45;107.50;;;;;;;-3.73;79.22;95691.22;1804058;78;21178;-47
2022/12/20 06:20:51;;;;;;;279.93;125.42;;;;;;;-3.71;78.87;95691.09;1808866;78;21451;-47
2022/12/20 06:23:20;;;;;;;305.45;136.65;;;;;;;-3.62;79.16;95685.62;1793491;78;21050;-46
2022/12/20 06:25:48;;;;;;;308.23;140.32;;;;;;;-3.50;79.12;95689.89;1765492;78;21314;-47
2022/12/20 06:28:20;;;;;;;319.70;141.45;;;;;;;-3.41;79.18;95689.21;1721013;82;21188;-45
2022/12/20 06:30:54;;;;;;;293.07;131.90;;;;;;;-3.26;79.08;95687.78;1744481;80;20995;-47
2022/12/20 06:33:24;;;;;;;294.35;137.15;;;;;;;-3.13;79.10;95692.81;1622152;87;21348;-47
2022/12/20 06:35:52;;;;;;;296.48;134.18;;;;;;;-3.02;78.91;95689.87;1625882;86;21029;-49
2022/12/20 06:38:22;;;;;;;275.52;127.07;;;;;;;-2.85;78.69;95685.58;1657692;85;21533;-50
2022/12/20 06:40:50;;;;;;;238.22;111.65;;;;;;;-2.65;78.74;95683.88;1624159;86;21075;-49
2022/12/20 06:43:17;;;;;;;239.45;114.42;;;;;;;-2.51;77.97;95685.05;1638025;85;21159;-45
2022/12/20 06:45:46;;;;;;;248.78;110.97;;;;;;;-2.44;77.49;95673.16;1644866;85;21214;-49
2022/12/20 06:48:13;;;;;;;197.60;99.47;;;;;;;-2.43;77.19;95680.11;1614010;86;21337;-48
2022/12/20 06:50:42;;;;;;;199.95;95.30;;;;;;;-2.36;76.78;95672.21;1605551;86;21823;-46
2022/12/20 06:53:11;;;;;;;200.55;100.40;;;;;;;-2.27;76.59;95678.80;1593421;87;21108;-46
2022/12/20 06:55:38;;;;;;;214.97;104.07;;;;;;;-2.23;76.10;95681.02;1606532;87;21127;-49
2022/12/20 06:58:05;;;;;;;183.85;89.05;;;;;;;-2.24;75.84;95677.56;1601642;87;21092;-47
2022/12/20 07:00:33;;;;;;;193.75;94.30;;;;;;;-2.22;75.73;95677.20;1597530;86;21129;-51
2022/12/20 07:03:00;;;;;;;394.87;200.15;;;;;;;-2.14;75.47;95669.55;1621535;85;22185;-47
2022/12/20 07:05:27;;;;;;;380.60;201.50;;;;;;;-2.03;75.62;95675.98;1667504;84;21131;-51
2022/12/20 07:07:53;;;;;;;383.65;200.00;;;;;;;-1.97;76.02;95668.66;1668352;83;21177;-47
2022/12/20 07:10:23;;;;;;;206.68;110.03;;;;;;;-1.83;76.34;95666.89;1686427;79;21793;-48
2022/12/20 07:12:53;;;;;;;206.97;103.47;;;;;;;-1.67;76.10;95671.19;1777842;80;21541;-54
2022/12/20 07:15:21;;;;;;;219.18;113.32;;;;;;;-1.54;76.07;95670.76;1778196;78;22108;-51
2022/12/20 07:17:48;;;;;;;355.07;178.62;;;;;;;-1.42;75.77;95665.83;1773080;79;21563;-47
2022/12/20 07:20:30;;;;;;;391.68;197.30;;;;;;;-1.32;75.87;95664.74;1780109;78;21117;-49
2022/12/20 07:22:57;;;;;;;227.70;115.92;;;;;;;-1.20;75.58;95666.55;1756736;79;21158;-52
2022/12/20 07:25:24;;;;;;;203.95;102.92;;;;;;;-1.08;75.20;95666.46;1769060;78;21058;-50
2022/12/20 07:27:51;;;;;;;189.37;102.22;;;;;;;-1.01;74.75;95657.96;1761836;79;21120;-50
2022/12/20 07:30:23;;;;;;;198.90;108.85;;;;;;;-0.94;74.97;95657.34;1778364;79;21182;-52
2022/12/20 07:32:50;;;;;;;288.83;150.23;;;;;;;-0.85;74.86;95652.52;1776983;78;22127;-46
2022/12/20 07:35:22;;;;;;;338.00;172.25;;;;;;;-0.72;74.88;95652.62;1778354;79;21758;-51
2022/12/20 07:37:54;;;;;;;338.50;174.80;;;;;;;-0.63;75.13;95643.76;1715752;82;21103;-48
2022/12/20 07:40:23;;;;;;;379.15;195.20;;;;;;;-0.44;74.95;95646.47;1693751;83;21041;-49
2022/12/20 07:42:51;;;;;;;425.10;212.93;;;;;;;-0.22;74.58;95653.86;1665775;84;21166;-46
2022/12/20 07:45:18;;;;;;;512.38;224.92;;;;;;;-0.03;73.89;95647.09;1704277;82;21603;-46
2022/12/20 07:47:45;;;;;;;422.55;198.40;;;;;;;0.15;72.95;95640.30;1696601;83;21218;-47
2022/12/20 07:50:13;;;;;;;427.20;211.82;;;;;;;0.22;72.44;95643.70;1670902;84;20933;-47
2022/12/20 07:52:41;;;;;;;351.88;184.00;;;;;;;0.28;72.28;95638.20;1683195;83;21598;-55
2022/12/20 07:55:16;;;;;;;367.37;201.05;;;;;;;0.36;72.44;95635.26;1647915;84;21733;-56
2022/12/20 07:57:53;;;;;;;323.55;174.60;;;;;;;0.49;72.77;95638.00;1682413;84;21581;-50
2022/12/20 08:00:21;;;;;;;323.62;166.97;;;;;;;0.66;72.99;95640.22;1666760;84;21320;-47
2022/12/20 08:02:59;;;;;;;240.92;133.80;;;;;;;0.89;73.11;95638.27;1686063;83;21029;-54
2022/12/20 08:05:28;;;;;;;211.43;116.55;;;;;;;1.12;72.50;95632.80;1684180;83;21213;-51
2022/12/20 08:08:05;;;;;;;209.27;111.30;;;;;;;1.22;72.56;95626.18;1679986;83;21158;-52
2022/12/20 08:10:32;;;;;;;180.15;96.42;;;;;;;1.40;72.20;95629.91;1684195;83;21166;-50
2022/12/20 08:12:59;;;;;;;217.60;118.85;;;;;;;1.58;71.56;95622.80;1688180;83;21270;-49
2022/12/20 08:15:26;;;;;;;230.75;125.30;;;;;;;1.62;71.29;95616.83;1689906;83;21208;-56
2022/12/20 08:17:53;;;;;;;291.15;150.87;;;;;;;1.69;71.56;95618.85;1657027;84;21124;-48
2022/12/20 08:20:21;;;;;;;281.68;148.68;;;;;;;1.76;71.87;95623.79;1670514;85;21477;-50
2022/12/20 08:22:48;;;;;;;247.63;130.18;;;;;;;1.90;71.47;95623.94;1673117;84;21111;-47
2022/12/20 08:25:16;;;;;;;281.40;146.65;;;;;;;1.96;71.00;95619.16;1688914;83;21986;-47
2022/12/20 08:27:43;;;;;;;266.02;143.70;;;;;;;2.01;70.52;95616.14;1696832;83;21168;-51
2022/12/20 08:30:12;;;;;;;281.77;147.02;;;;;;;2.13;70.11;95604.24;1684569;83;21094;-48
2022/12/20 08:32:39;;;;;;;220.17;116.75;;;;;;;2.14;70.40;95599.02;1683201;83;21093;-51
2022/12/20 08:35:07;;;;;;;218.42;113.05;;;;;;;2.12;69.95;95599.97;1700257;82;21128;-48
2022/12/20 08:37:35;;;;;;;257.05;133.78;;;;;;;2.15;69.29;95582.94;1686408;82;21957;-46
2022/12/20 08:40:01;;;;;;;279.75;151.70;;;;;;;2.24;68.56;95586.11;1747115;79;21069;-48
2022/12/20 08:42:29;;;;;;;257.12;143.80;;;;;;;2.27;69.25;95585.36;1769361;79;21064;-48
2022/12/20 08:44:56;;;;;;;249.02;134.87;;;;;;;2.31;69.58;95579.41;1791785;78;21179;-51
2022/12/20 08:47:24;;;;;;;269.45;137.88;;;;;;;2.41;69.22;95577.35;1786800;79;21120;-46
2022/12/20 08:49:51;;;;;;;204.07;114.37;;;;;;;2.54;67.72;95567.77;1769589;79;21206;-50
2022/12/20 08:52:20;;;;;;;211.60;118.33;;;;;;;2.65;66.85;95566.70;1770252;78;21038;-46
2022/12/20 08:54:48;;;;;;;230.15;129.00;;;;;;;2.77;66.45;95565.62;1775579;78;21116;-50
2022/12/20 08:57:16;;;;;;;188.97;106.45;;;;;;;2.94;66.70;95556.80;1747008;80;21554;-49
2022/12/20 08:59:46;;;;;;;186.37;105.58;;;;;;;3.07;66.68;95555.34;1743567;80;21085;-48
2022/12/20 09:02:15;;;;;;;178.95;95.85;;;;;;;3.14;66.14;95545.30;1761418;79;22269;-50
2022/12/20 09:04:43;;;;;;;154.10;85.97;;;;;;;3.26;64.67;95544.95;1768690;79;21487;-47
2022/12/20 09:11:51;;;;;;;146.60;83.50;;;;;;;3.43;64.17;95538.05;1804311;77;27004;-51
2022/12/20 09:14:18;;;;;;;113.45;67.65;;;;;;;3.48;64.08;95544.68;1780693;79;21094;-55
2022/12/20 09:16:45;;;;;;;106.63;59.95;;;;;;;3.55;63.97;95535.17;1767374;80;21142;-54
2022/12/20 09:19:13;;;;;;;125.58;70.57;;;;;;;3.59;63.32;95532.48;1783245;78;20997;-52
2022/12/20 09:21:40;;;;;;;157.95;99.07;;;;;;;3.59;62.97;95529.19;1781112;79;21486;-53
2022/12/20 09:24:08;;;;;;;193.28;110.68;;;;;;;3.69;63.16;95538.55;1768656;79;21601;-55
2022/12/20 09:26:35;;;;;;;165.50;99.25;;;;;;;3.84;63.04;95530.03;1754086;79;21050;-53
2022/12/20 09:29:02;;;;;;;174.55;99.52;;;;;;;3.98;63.31;95531.44;1775652;78;21276;-60
2022/12/20 09:31:29;;;;;;;148.78;86.05;;;;;;;4.01;63.34;95528.50;1754381;80;21663;-50
2022/12/20 09:33:57;;;;;;;377.32;172.10;;;;;;;4.00;62.55;95529.67;1733701;81;21124;-52
2022/12/20 09:36:25;;;;;;;394.82;194.45;;;;;;;4.08;62.14;95530.66;1708898;81;21106;-49
2022/12/20 09:38:54;;;;;;;572.58;288.32;;;;;;;4.12;62.07;95526.59;1776099;79;21921;-53
2022/12/20 09:41:42;;;;;;;354.43;183.65;;;;;;;4.15;61.91;95526.61;1788090;78;22045;-55
2022/12/20 09:44:34;;;;;;;393.65;209.12;;;;;;;4.19;62.47;95527.95;1776080;79;21026;-54
2022/12/20 09:47:14;;;;;;;299.07;160.48;;;;;;;4.29;62.32;95511.66;1753857;79;21136;-56
2022/12/20 09:49:46;;;;;;;197.02;110.15;;;;;;;4.47;62.42;95506.98;1752153;80;21104;-52
2022/12/20 09:52:40;;;;;;;147.40;82.15;;;;;;;4.57;58.98;95499.98;1754656;79;21075;-49
2022/12/20 09:55:24;;;;;;;202.38;110.55;;;;;;;4.60;56.88;95502.69;1722301;82;21276;-53
2022/12/20 09:58:16;;;;;;;154.57;93.22;;;;;;;4.69;54.28;95500.36;1692763;83;21053;-57
2022/12/20 10:00:49;;;;;;;181.32;110.40;;;;;;;4.84;56.69;95488.84;1749620;81;21091;-54
2022/12/20 10:03:26;;;;;;;168.93;97.53;;;;;;;5.00;57.04;95479.05;1692146;82;21009;-53
2022/12/20 10:06:06;;;;;;;196.55;117.05;;;;;;;5.14;57.88;95480.39;1600663;88;21692;-53
2022/12/20 10:08:52;;;;;;;198.65;115.88;;;;;;;5.21;58.35;95466.74;1572089;88;21152;-52
2022/12/20 10:12:06;;;;;;;164.20;90.35;;;;;;;5.27;58.19;95470.61;1553415;90;21080;-53
2022/12/20 10:14:56;;;;;;;171.85;100.40;;;;;;;5.23;53.94;95461.67;1534115;91;21144;-53
2022/12/20 10:17:32;;;;;;;182.20;103.27;;;;;;;5.22;55.73;95456.02;1561128;90;21115;-55
2022/12/20 10:20:19;;;;;;;134.78;75.17;;;;;;;5.36;55.90;95454.58;1548910;89;21126;-54
2022/12/20 10:23:16;;;;;;;140.47;74.15;;;;;;;5.50;51.71;95447.70;1538519;91;21906;-57
2022/12/20 10:25:44;;;;;;;133.25;68.07;;;;;;;5.73;51.60;95446.02;1515448;92;21132;-53
2022/12/20 10:28:14;;;;;;;112.62;62.80;;;;;;;5.96;52.42;95441.44;1608264;88;21285;-57
2022/12/20 10:30:41;;;;;;;115.03;59.33;;;;;;;6.25;52.07;95433.20;1600596;89;21052;-52
2022/12/20 10:33:20;;;;;;;87.15;29.25;;;;;;;6.68;49.83;95434.41;1534102;92;21419;-54
2022/12/20 10:35:49;;;;;;;22.65;11.93;;;;;;;7.34;45.57;95420.75;1446723;98;21373;-54
2022/12/20 10:38:19;;;;;;;18.98;7.90;;;;;;;8.11;38.52;95410.08;1464363;95;22322;-53
2022/12/20 10:41:00;;;;;;;27.00;10.30;;;;;;;8.62;36.12;95391.84;1461503;97;21724;-58
2022/12/20 10:43:27;;;;;;;27.32;13.30;;;;;;;9.05;35.14;95394.77;1492673;93;21208;-58
2022/12/20 10:46:03;;;;;;;76.22;20.75;;;;;;;9.59;33.44;95385.03;1478310;95;21193;-57
2022/12/20 10:48:36;;;;;;;38.17;15.10;;;;;;;10.05;34.02;95382.66;1507839;94;21224;-57
2022/12/20 10:51:13;;;;;;;36.65;17.12;;;;;;;10.79;33.09;95371.39;1477054;95;21267;-59
2022/12/20 10:53:58;;;;;;;18.25;8.23;;;;;;;11.60;29.57;95368.55;1480992;95;21247;-54
2022/12/20 10:56:33;;;;;;;38.90;16.60;;;;;;;12.32;27.42;95361.97;1486622;93;21698;-54
2022/12/20 10:59:02;;;;;;;22.87;7.90;;;;;;;12.91;27.43;95352.28;1541716;91;21124;-57
2022/12/20 11:01:35;;;;;;;12.37;6.30;;;;;;;12.96;26.84;95358.64;1519087;92;21245;-58
2022/12/20 11:04:08;;;;;;;;;;;;;;;12.56;27.33;95359.00;1600129;88;21132;-56
2022/12/20 11:06:44;;;;;;;29.98;8.08;;;;;;;11.96;27.69;95362.92;1575492;89;20203;-56
2022/12/20 11:09:35;;;;;;;22.35;8.03;;;;;;;11.36;28.39;95356.23;1563545;89;21241;-58
2022/12/20 11:12:13;;;;;;;21.20;11.00;;;;;;;10.80;28.26;95349.53;1604691;87;21179;-57
2022/12/20 11:14:43;;;;;;;24.63;8.68;;;;;;;10.24;29.00;95351.57;1629256;86;21167;-58
2022/12/20 11:17:30;;;;;;;20.95;10.70;;;;;;;9.85;29.07;95346.19;1607116;86;21117;-54
2022/12/20 11:20:33;;;;;;;25.82;8.90;;;;;;;9.48;28.71;95348.00;1593265;88;21071;-58
2022/12/20 11:23:41;;;;;;;23.02;8.85;;;;;;;9.05;28.78;95343.23;1623429;86;21118;-58
2022/12/20 11:26:35;;;;;;;32.48;8.85;;;;;;;8.69;29.39;95345.69;1618120;87;21172;-58
2022/12/20 11:29:14;;;;;;;17.67;8.80;;;;;;;8.37;30.04;95343.53;1673780;84;21279;-59
2022/12/20 11:32:12;;;;;;;17.27;8.93;;;;;;;8.11;30.55;95342.95;1683942;84;22405;-57
2022/12/20 11:35:12;;;;;;;14.20;8.23;;;;;;;7.94;31.33;95341.88;1686057;84;20985;-56
2022/12/20 11:38:23;;;;;;;18.57;10.90;;;;;;;7.73;30.50;95345.70;1691740;84;21234;-57
2022/12/20 11:41:24;;;;;;;32.23;8.93;;;;;;;7.50;31.02;95337.45;1694978;83;21066;-52
2022/12/20 11:44:16;;;;;;;23.15;13.83;;;;;;;7.34;31.03;95322.22;1714696;83;21342;-53
2022/12/20 11:47:11;;;;;;;19.65;10.43;;;;;;;7.21;30.82;95325.93;1714608;83;21118;-51
2022/12/20 11:50:26;;;;;;;23.27;12.80;;;;;;;7.09;31.52;95316.31;1716083;83;21120;-54
2022/12/20 11:53:10;;;;;;;27.48;11.03;;;;;;;7.08;31.84;95318.88;1692286;83;21048;-57
2022/12/20 11:55:42;;;;;;;20.05;10.08;;;;;;;7.18;32.31;95323.41;1715531;83;21418;-55
2022/12/20 11:58:26;;;;;;;19.85;9.10;;;;;;;7.31;31.69;95328.52;1695453;83;21793;-57
2022/12/20 12:01:00;;;;;;;23.25;8.98;;;;;;;7.91;30.65;95319.42;1670216;85;21082;-55
2022/12/20 12:03:37;;;;;;;45.45;10.72;;;;;;;8.74;29.61;95324.04;1670685;85;21100;-56
2022/12/20 12:06:18;;;;;;;20.80;8.65;;;;;;;9.42;28.27;95318.13;1640617;85;21116;-59
2022/12/20 12:08:50;;;;;;;8.95;6.35;;;;;;;10.30;27.12;95318.21;1618249;87;21614;-60
2022/12/20 12:11:23;;;;;;;13.00;6.83;;;;;;;10.92;25.64;95317.93;1596815;88;21192;-58
2022/12/20 12:13:50;;;;;;;11.33;7.42;;;;;;;10.85;25.20;95314.01;1589761;89;21239;-56
2022/12/20 12:16:22;;;;;;;13.00;6.65;;;;;;;10.51;25.85;95318.45;1635239;87;21054;-55
2022/12/20 12:18:49;;;;;;;18.23;7.62;;;;;;;10.19;25.95;95317.11;1531441;93;21504;-58
2022/12/20 12:21:36;;;;;;;26.95;7.87;;;;;;;9.79;26.21;95323.19;1523009;93;21150;-58
2022/12/20 12:24:20;;;;;;;23.35;8.80;;;;;;;9.97;26.69;95311.93;1546076;91;21294;-53
2022/12/20 12:26:47;;;;;;;23.57;9.38;;;;;;;10.68;26.38;95317.84;1607287;87;21105;-57
2022/12/20 12:29:16;;;;;;;23.18;10.63;;;;;;;10.99;26.30;95324.61;1635377;85;21105;-54
2022/12/20 12:31:55;;;;;;;19.05;8.90;;;;;;;11.41;26.25;95309.64;1630993;85;21141;-59
2022/12/20 12:34:46;;;;;;;17.60;8.65;;;;;;;12.19;25.32;95319.83;1525648;93;21131;-54
2022/12/20 12:37:40;;;;;;;17.65;8.45;;;;;;;12.88;24.34;95306.23;1513718;92;21272;-57
2022/12/20 12:40:27;;;;;;;20.60;7.45;;;;;;;13.18;23.38;95302.80;1544578;92;21172;-53
2022/12/20 12:43:17;;;;;;;34.60;9.03;;;;;;;13.32;22.60;95305.05;1540691;92;21129;-57
2022/12/20 12:45:50;;;;;;;36.00;11.03;;;;;;;13.50;22.76;95301.02;1549410;91;21058;-59
2022/12/20 12:48:26;;;;;;;;;;;;;;;13.71;22.68;95295.45;1538906;92;21220;-59
2022/12/20 12:50:56;;;;;;;25.32;10.75;;;;;;;13.78;22.33;95296.55;1600968;87;21308;-59
2022/12/20 12:53:45;;;;;;;33.98;11.83;;;;;;;13.87;22.50;95288.91;1610469;87;21611;-62
2022/12/20 12:56:30;;;;;;;44.58;13.62;;;;;;;14.07;22.24;95287.91;1602999;87;21073;-57
2022/12/20 12:59:24;;;;;;;28.83;11.70;;;;;;;14.14;22.46;95287.64;1603319;88;21073;-56
2022/12/20 13:02:03;;;;;;;15.68;8.98;;;;;;;14.09;21.91;95290.98;1611912;87;21111;-59
2022/12/20 13:04:59;;;;;;;29.65;9.83;;;;;;;13.84;21.74;95291.20;1610411;86;22112;-60
2022/12/20 13:07:38;;;;;;;59.23;10.88;;;;;;;13.89;22.15;95293.37;1570200;89;21057;-51
2022/12/20 13:10:28;;;;;;;21.45;8.73;;;;;;;13.74;21.93;95295.14;1583742;89;21135;-57
2022/12/20 13:13:00;;;;;;;28.17;10.75;;;;;;;13.16;21.98;95303.86;1594701;87;21516;-59
2022/12/20 13:15:46;;;;;;;134.65;18.42;;;;;;;12.35;22.75;95296.24;1593143;87;21715;-59
2022/12/20 13:18:20;;;;;;;32.42;11.30;;;;;;;11.60;23.24;95299.06;1577895;88;21212;-61
2022/12/20 13:21:34;;;;;;;28.92;13.05;;;;;;;11.00;23.88;95298.62;1587375;88;21610;-60
2022/12/20 13:24:41;;;;;;;32.63;14.50;;;;;;;10.49;24.45;95296.73;1590647;87;21175;-59
2022/12/20 13:27:24;;;;;;;36.10;12.60;;;;;;;10.05;25.20;95299.61;1601959;87;21167;-55
2022/12/20 13:30:08;;;;;;;45.92;17.35;;;;;;;9.82;25.45;95301.71;1595523;88;21314;-56
2022/12/20 13:32:58;;;;;;;48.30;26.12;;;;;;;9.56;25.99;95295.23;1603430;87;21546;-61
2022/12/20 13:35:30;;;;;;;91.67;61.77;;;;;;;9.34;26.50;95300.25;1544138;90;21090;-58
2022/12/20 13:38:04;;;;;;;43.17;24.90;;;;;;;9.12;26.79;95297.20;1580461;87;21129;-59
2022/12/20 13:40:57;;;;;;;52.98;32.75;;;;;;;8.92;26.77;95297.79;1550436;90;21069;-58
2022/12/20 13:43:36;;;;;;;93.65;46.33;;;;;;;8.63;26.43;95294.66;1587834;89;21207;-60
2022/12/20 13:46:13;;;;;;;64.17;33.50;;;;;;;8.21;26.95;95289.97;1610505;86;21399;-57
2022/12/20 13:48:57;;;;;;;49.80;26.10;;;;;;;7.87;27.13;95290.71;1643108;84;21147;-57
2022/12/20 13:51:26;;;;;;;148.50;68.00;;;;;;;7.62;27.24;95288.97;1653313;85;21572;-56
2022/12/20 13:54:03;;;;;;;69.53;35.13;;;;;;;7.38;27.63;95294.20;1643532;84;21665;-57
2022/12/20 13:56:36;;;;;;;61.42;30.77;;;;;;;7.21;28.06;95298.57;1638260;84;21148;-57
2022/12/20 13:59:07;;;;;;;114.85;55.83;;;;;;;7.09;28.28;95293.06;1608439;87;26886;-56
2022/12/20 14:01:34;;;;;;;55.40;29.23;;;;;;;6.90;28.60;95299.00;1523545;91;21262;-56
2022/12/20 14:04:06;;;;;;;51.65;26.23;;;;;;;6.68;28.74;95293.61;1516165;91;21117;-57
2022/12/20 14:06:33;;;;;;;38.15;16.93;;;;;;;6.48;29.20;95304.97;1529040;90;21140;-55
2022/12/20 14:09:00;;;;;;;35.45;16.87;;;;;;;6.34;29.29;95307.84;1538679;91;21168;-57
2022/12/20 14:11:27;;;;;;;27.32;14.05;;;;;;;6.21;29.17;95306.80;1527722;92;21455;-55
2022/12/20 14:13:59;;;;;;;33.50;17.35;;;;;;;6.08;29.28;95300.28;1510345;92;21111;-54
2022/12/20 14:16:30;;;;;;;25.27;14.80;;;;;;;5.94;29.80;95303.16;1517527;92;21634;-55
2022/12/20 14:19:04;;;;;;;38.28;17.48;;;;;;;5.85;30.51;95297.38;1501270;93;21125;-56
2022/12/20 14:21:40;;;;;;;42.00;19.37;;;;;;;5.76;30.74;95290.22;1500260;94;21186;-56
2022/12/20 14:24:14;;;;;;;42.45;21.17;;;;;;;5.66;30.44;95291.86;1516056;93;21196;-56
2022/12/20 14:26:44;;;;;;;36.10;18.07;;;;;;;5.60;30.36;95295.42;1517132;92;21071;-55
2022/12/20 14:29:11;;;;;;;34.55;16.62;;;;;;;5.56;30.68;95289.19;1508382;93;21192;-56
2022/12/20 14:31:41;;;;;;;38.02;22.00;;;;;;;5.54;31.12;95290.19;1513129;92;21193;-55
2022/12/20 14:34:15;;;;;;;40.80;22.35;;;;;;;5.52;31.51;95295.27;1512618;92;21154;-57
2022/12/20 14:36:45;;;;;;;64.50;24.40;;;;;;;5.52;31.08;95289.23;1541280;89;21192;-55
2022/12/20 14:39:27;;;;;;;77.85;31.57;;;;;;;5.51;31.33;95282.80;1567306;90;21085;-59
2022/12/20 14:42:06;;;;;;;68.25;30.05;;;;;;;5.54;31.43;95279.27;1583613;89;21216;-55
2022/12/20 14:44:33;;;;;;;38.92;20.48;;;;;;;5.59;31.35;95277.50;1531000;91;21628;-56
2022/12/20 14:47:04;;;;;;;31.70;17.62;;;;;;;5.58;30.88;95286.26;1611362;87;21075;-56
2022/12/20 14:49:35;;;;;;;39.63;23.02;;;;;;;5.57;31.05;95282.58;1566150;89;21680;-58
2022/12/20 14:52:18;;;;;;;36.35;20.02;;;;;;;5.55;30.91;95271.27;1628055;85;22258;-55
2022/12/20 14:54:57;;;;;;;42.05;23.47;;;;;;;5.53;30.91;95280.45;1621855;86;21170;-56
2022/12/20 14:57:32;;;;;;;44.63;26.35;;;;;;;5.48;31.15;95270.76;1649661;86;21213;-57
2022/12/20 15:00:11;;;;;;;44.65;26.48;;;;;;;5.52;30.76;95269.34;1619100;86;21264;-54
2022/12/20 15:02:53;;;;;;;48.50;26.23;;;;;;;5.50;30.66;95273.07;1628788;86;21328;-54
2022/12/20 15:06:34;;;;;;;82.27;30.32;;;;;;;5.47;31.21;95267.05;1668580;81;21249;-55
2022/12/20 15:09:04;;;;;;;38.55;21.05;;;;;;;5.45;31.12;95259.86;1730276;81;21104;-54
2022/12/20 15:11:32;;;;;;;30.17;18.32;;;;;;;5.38;31.15;95264.02;1744717;81;21091;-54
2022/12/20 15:14:01;;;;;;;45.50;26.77;;;;;;;5.35;30.92;95271.04;1658127;84;21088;-55
2022/12/20 15:24:20;;;;;;;38.63;27.98;;;;;;;5.26;30.72;95260.39;1721644;80;21090;-52
2022/12/20 15:26:48;;;;;;;26.62;18.60;;;;;;;5.21;30.47;95260.83;1696359;82;21006;-55
2022/12/20 15:29:20;;;;;;;53.80;29.63;;;;;;;5.16;30.79;95258.50;1698175;82;21644;-55
2022/12/20 15:31:47;;;;;;;51.60;26.97;;;;;;;5.12;31.63;95259.13;1684611;84;21258;-55
2022/12/20 15:34:18;;;;;;;53.25;23.85;;;;;;;5.07;31.61;95265.00;1695103;83;21070;-55
2022/12/20 15:36:46;;;;;;;36.50;19.25;;;;;;;5.07;31.38;95269.09;1675914;85;21166;-55
2022/12/20 15:39:12;;;;;;;25.00;16.97;;;;;;;5.06;31.54;95270.27;1671991;84;21485;-55
2022/12/20 15:41:42;;;;;;;31.52;18.25;;;;;;;5.07;31.02;95268.30;1672134;84;21660;-53
2022/12/20 15:44:18;;;;;;;29.75;15.75;;;;;;;5.07;30.99;95269.09;1673392;84;21260;-56
2022/12/20 15:46:45;;;;;;;65.47;22.85;;;;;;;5.11;31.22;95261.66;1672171;84;21041;-54
2022/12/20 15:49:24;;;;;;;46.48;22.15;;;;;;;5.12;31.97;95270.02;1678408;84;21186;-54
2022/12/20 15:51:52;;;;;;;74.60;31.20;;;;;;;5.13;32.35;95260.67;1603586;88;21557;-55
2022/12/20 15:54:32;;;;;;;39.92;16.17;;;;;;;5.13;31.58;95256.58;1617433;86;21778;-52
2022/12/20 15:57:06;;;;;;;157.27;37.28;;;;;;;5.10;31.18;95255.23;1604329;87;21407;-53
2022/12/20 15:59:32;;;;;;;146.98;57.62;;;;;;;5.10;32.92;95258.75;1643336;86;21045;-53
2022/12/20 19:04:04;;;;;;;104.60;44.58;;;;;;;2.38;48.80;95193.39;1806373;77;26497;-45
2022/12/20 19:06:31;;;;;;;199.72;67.12;;;;;;;2.40;48.36;95192.98;1785727;78;21061;-44
2022/12/20 19:09:00;;;;;;;139.32;53.80;;;;;;;2.49;48.79;95196.12;1797322;78;21302;-45
2022/12/20 19:11:27;;;;;;;114.67;55.88;;;;;;;2.54;49.26;95188.36;1767490;79;21037;-46
2022/12/20 19:13:55;;;;;;;95.05;50.67;;;;;;;2.59;49.49;95190.72;1759497;80;21046;-44
2022/12/20 19:17:02;;;;;;;93.92;48.55;;;;;;;2.66;48.73;95183.93;1752827;80;21582;-44
2022/12/20 19:19:38;;;;;;;104.00;54.25;;;;;;;2.74;48.53;95191.51;1752400;80;21129;-50
2022/12/20 19:22:05;;;;;;;133.80;64.65;;;;;;;2.81;48.67;95181.43;1758688;80;21171;-46
2022/12/20 19:24:32;;;;;;;141.80;69.92;;;;;;;2.86;48.44;95186.47;1741023;81;20946;-46